Wetterdaten: Woche 30.01.12 - 05.02.12 (KW5)
Datum Zeit Temp. A. Feuchte A. Luftdruck Regen Wind Richtung Taupunkt Windchill Windben
30.01.2012 00:00 -4,0 C 82 % 1032,1 hPa 0,0 l/m 2,2 km/h O-SO -6,7 C -4,0 C 8,9 km/h
30.01.2012 01:00 -5,3 C 83 % 1031,9 hPa 0,0 l/m 0,1 km/h N -7,6 C -5,3 C 3,2 km/h
30.01.2012 02:00 -5,7 C 85 % 1032,1 hPa 0,0 l/m 0,5 km/h SO -7,8 C -5,7 C 5,2 km/h
30.01.2012 03:00 -6,0 C 85 % 1031,8 hPa 0,0 l/m 0,4 km/h N -8,1 C -6,0 C 3,6 km/h
30.01.2012 04:00 -6,6 C 85 % 1031,7 hPa 0,0 l/m 0,1 km/h N -8,7 C -6,6 C 2,8 km/h
30.01.2012 05:00 -7,0 C 85 % 1031,8 hPa 0,0 l/m 0,1 km/h N -9,1 C -7,0 C 1,2 km/h
30.01.2012 06:00 -8,2 C 85 % 1032,2 hPa 0,0 l/m 0,0 km/h N -10,2 C -8,2 C 0,0 km/h
30.01.2012 07:00 -7,8 C 85 % 1032,4 hPa 0,0 l/m 0,0 km/h N -9,9 C -7,8 C 0,0 km/h
30.01.2012 08:00 -6,6 C 85 % 1032,4 hPa 0,0 l/m 0,2 km/h N -8,7 C -6,6 C 2,8 km/h
30.01.2012 09:00 -5,1 C 85 % 1032,3 hPa 0,0 l/m 1,0 km/h SO -7,3 C -5,1 C 4,8 km/h
30.01.2012 10:00 -4,0 C 83 % 1032,2 hPa 0,0 l/m 3,2 km/h SO -6,5 C -4,0 C 9,3 km/h
30.01.2012 11:00 -2,5 C 76 % 1032,0 hPa 0,0 l/m 3,2 km/h O-SO -6,1 C -2,5 C 9,7 km/h
30.01.2012 12:00 -1,0 C 66 % 1031,4 hPa 0,0 l/m 3,9 km/h O-SO -6,7 C -1,0 C 12,9 km/h
30.01.2012 13:00 0,6 C 49 % 1030,8 hPa 0,0 l/m 4,0 km/h NO -8,9 C 0,6 C 14,9 km/h
30.01.2012 14:00 0,9 C 49 % 1030,4 hPa 0,0 l/m 3,1 km/h SO -8,6 C 0,9 C 12,1 km/h
30.01.2012 15:00 0,5 C 50 % 1030,3 hPa 0,0 l/m 2,7 km/h O-SO -8,6 C 0,5 C 14,5 km/h
30.01.2012 16:00 -0,7 C 53 % 1030,3 hPa 0,0 l/m 1,5 km/h O-NO -9,1 C -0,7 C 10,1 km/h
30.01.2012 17:00 -1,7 C 56 % 1030,7 hPa 0,0 l/m 0,6 km/h SO -9,5 C -1,7 C 5,2 km/h
30.01.2012 18:00 -2,5 C 59 % 1030,8 hPa 0,0 l/m 1,0 km/h SO -9,4 C -2,5 C 6,0 km/h
30.01.2012 19:00 -2,2 C 58 % 1030,8 hPa 0,0 l/m 4,8 km/h SO -9,5 C -2,4 C 14,1 km/h
30.01.2012 20:00 -3,1 C 64 % 1030,9 hPa 0,0 l/m 1,3 km/h SO -9,1 C -3,1 C 5,6 km/h
30.01.2012 21:00 -4,3 C 69 % 1031,1 hPa 0,0 l/m 0,1 km/h N -9,2 C -4,3 C 2,0 km/h
30.01.2012 22:00 -4,9 C 72 % 1030,9 hPa 0,0 l/m 0,5 km/h SO -9,2 C -4,9 C 3,6 km/h
30.01.2012 23:00 -5,0 C 71 % 1030,9 hPa 0,0 l/m 2,1 km/h SO -9,5 C -5,0 C 7,2 km/h
31.01.2012 00:00 -5,2 C 70 % 1030,7 hPa 0,0 l/m 3,1 km/h SO -9,7 C -5,2 C 8,4 km/h
31.01.2012 01:00 -5,8 C 73 % 1030,7 hPa 0,0 l/m 1,6 km/h O-SO -9,9 C -5,8 C 7,6 km/h
31.01.2012 02:00 -6,2 C 74 % 1030,5 hPa 0,0 l/m 2,8 km/h O-SO -10,1 C -6,2 C 8,9 km/h
31.01.2012 03:00 -6,6 C 75 % 1030,2 hPa 0,0 l/m 2,2 km/h O-SO -10,3 C -6,6 C 8,0 km/h
31.01.2012 04:00 -7,2 C 78 % 1030,2 hPa 0,0 l/m 0,5 km/h N -10,4 C -7,2 C 4,8 km/h
31.01.2012 05:00 -7,7 C 80 % 1030,0 hPa 0,0 l/m 0,5 km/h SO -10,5 C -7,7 C 3,6 km/h
31.01.2012 06:00 -8,0 C 82 % 1029,9 hPa 0,0 l/m 0,6 km/h SO -10,6 C -8,0 C 5,6 km/h
31.01.2012 07:00 -8,0 C 83 % 1030,0 hPa 0,0 l/m 1,1 km/h SO -10,4 C -8,0 C 7,2 km/h
31.01.2012 08:00 -7,8 C 83 % 1030,2 hPa 0,0 l/m 1,8 km/h SO -10,1 C -7,8 C 8,4 km/h
31.01.2012 09:00 -6,0 C 80 % 1030,1 hPa 0,0 l/m 2,7 km/h SO -8,8 C -6,0 C 12,5 km/h
31.01.2012 10:00 -4,3 C 74 % 1029,9 hPa 0,0 l/m 7,9 km/h O -8,3 C -6,6 C 22,1 km/h
31.01.2012 11:00 -3,5 C 67 % 1029,7 hPa 0,0 l/m 12,9 km/h O-NO -8,7 C -9,6 C 31,0 km/h
31.01.2012 12:00 -2,8 C 59 % 1029,2 hPa 0,0 l/m 10,3 km/h O-SO -9,7 C -6,6 C 27,4 km/h
31.01.2012 13:00 -2,6 C 55 % 1028,8 hPa 0,0 l/m 7,8 km/h SO -10,5 C -4,2 C 24,5 km/h
31.01.2012 14:00 -2,9 C 54 % 1028,5 hPa 0,0 l/m 7,8 km/h O-SO -11,0 C -4,4 C 22,1 km/h
31.01.2012 15:00 -3,1 C 58 % 1028,4 hPa 0,0 l/m 7,0 km/h SO -10,1 C -4,0 C 20,1 km/h
31.01.2012 16:00 -3,3 C 61 % 1028,6 hPa 0,0 l/m 5,4 km/h O-SO -9,8 C -3,5 C 17,3 km/h
31.01.2012 17:00 -4,1 C 65 % 1028,7 hPa 0,0 l/m 1,0 km/h O-SO -9,8 C -4,1 C 5,6 km/h
31.01.2012 18:00 -5,8 C 71 % 1028,9 hPa 0,0 l/m 0,0 km/h N -10,3 C -5,8 C 0,8 km/h
31.01.2012 19:00 -7,7 C 78 % 1029,0 hPa 0,0 l/m 0,0 km/h N -10,8 C -7,7 C 0,0 km/h
31.01.2012 20:00 -8,5 C 81 % 1029,0 hPa 0,0 l/m 0,0 km/h N -11,2 C -8,5 C 0,0 km/h
31.01.2012 21:00 -9,1 C 83 % 1029,1 hPa 0,0 l/m 0,0 km/h N -11,5 C -9,1 C 0,0 km/h
31.01.2012 22:00 -9,7 C 84 % 1029,0 hPa 0,0 l/m 0,0 km/h N -11,9 C -9,7 C 0,0 km/h
31.01.2012 23:00 -9,9 C 85 % 1028,8 hPa 0,0 l/m 0,0 km/h N -12,0 C -9,9 C 0,0 km/h
01.02.2012 00:00 -9,9 C 85 % 1028,8 hPa 0,0 l/m 0,0 km/h N -12,0 C -9,9 C 0,0 km/h
01.02.2012 01:00 -10,2 C 85 % 1029,0 hPa 0,0 l/m 0,0 km/h N -12,2 C -10,2 C 0,0 km/h
01.02.2012 02:00 -10,5 C 85 % 1028,8 hPa 0,0 l/m 0,0 km/h N -12,5 C -10,5 C 0,0 km/h
01.02.2012 03:00 -11,1 C 85 % 1028,5 hPa 0,0 l/m 0,0 km/h N -13,1 C -11,1 C 0,0 km/h
01.02.2012 04:00 -11,5 C 85 % 1028,5 hPa 0,0 l/m 0,0 km/h N -13,5 C -11,5 C 0,0 km/h
01.02.2012 05:00 -11,6 C 85 % 1028,5 hPa 0,0 l/m 0,0 km/h N -13,6 C -11,6 C 0,0 km/h
01.02.2012 06:00 -12,1 C 85 % 1028,7 hPa 0,0 l/m 0,0 km/h N -14,1 C -12,1 C 0,0 km/h
01.02.2012 07:00 -12,1 C 85 % 1029,1 hPa 0,0 l/m 0,0 km/h N -14,1 C -12,1 C 0,0 km/h
01.02.2012 08:00 -10,5 C 84 % 1029,2 hPa 0,0 l/m 0,0 km/h N -12,7 C -10,5 C 0,0 km/h
01.02.2012 09:00 -8,5 C 77 % 1029,2 hPa 0,0 l/m 0,1 km/h N -11,8 C -8,5 C 2,0 km/h
01.02.2012 10:00 -7,8 C 73 % 1029,2 hPa 0,0 l/m 0,8 km/h O -11,8 C -7,8 C 5,6 km/h
01.02.2012 11:00 -6,9 C 68 % 1028,8 hPa 0,0 l/m 0,6 km/h N -11,8 C -6,9 C 5,2 km/h
01.02.2012 12:00 -5,8 C 65 % 1028,1 hPa 0,0 l/m 0,5 km/h O-SO -11,3 C -5,8 C 4,8 km/h
01.02.2012 13:00 -4,8 C 62 % 1027,5 hPa 0,0 l/m 1,2 km/h O-SO -11,0 C -4,8 C 6,8 km/h
01.02.2012 14:00 -4,3 C 62 % 1027,3 hPa 0,0 l/m 0,4 km/h N -10,6 C -4,3 C 4,8 km/h
01.02.2012 15:00 -4,2 C 62 % 1027,3 hPa 0,0 l/m 0,2 km/h NO -10,5 C -4,2 C 2,4 km/h
01.02.2012 16:00 -4,3 C 58 % 1027,3 hPa 0,0 l/m 1,2 km/h N-NO -11,3 C -4,3 C 8,0 km/h
01.02.2012 17:00 -5,4 C 59 % 1027,7 hPa 0,0 l/m 3,5 km/h N-NO -12,2 C -5,4 C 11,3 km/h
01.02.2012 18:00 -7,2 C 59 % 1028,5 hPa 0,0 l/m 3,1 km/h N-NO -13,8 C -7,2 C 12,5 km/h
01.02.2012 19:00 -8,8 C 61 % 1028,9 hPa 0,0 l/m 4,3 km/h N -14,9 C -8,8 C 12,5 km/h
01.02.2012 20:00 -9,3 C 64 % 1029,0 hPa 0,0 l/m 2,9 km/h N-NO -14,9 C -9,3 C 9,3 km/h
01.02.2012 21:00 -9,7 C 65 % 1029,2 hPa 0,0 l/m 3,7 km/h NW -15,0 C -9,7 C 11,7 km/h
01.02.2012 22:00 -10,1 C 67 % 1029,3 hPa 0,0 l/m 3,4 km/h N-NW -15,1 C -10,1 C 9,7 km/h
01.02.2012 23:00 -10,6 C 69 % 1029,3 hPa 0,0 l/m 3,3 km/h NW -15,3 C -10,6 C 10,1 km/h
02.02.2012 00:00 -11,2 C 70 % 1029,3 hPa 0,0 l/m 4,6 km/h NW -15,6 C -11,2 C 12,1 km/h
02.02.2012 01:00 -11,8 C 73 % 1029,3 hPa 0,0 l/m 2,5 km/h NW -15,7 C -11,8 C 8,0 km/h
02.02.2012 02:00 -12,1 C 73 % 1029,5 hPa 0,0 l/m 3,7 km/h W-NW -16,1 C -12,1 C 8,4 km/h
02.02.2012 03:00 -12,5 C 72 % 1029,5 hPa 0,0 l/m 4,1 km/h W-NW -16,6 C -12,5 C 10,5 km/h
02.02.2012 04:00 -12,9 C 72 % 1029,6 hPa 0,0 l/m 4,0 km/h W-NW -16,9 C -12,9 C 10,9 km/h
02.02.2012 05:00 -13,3 C 72 % 1029,9 hPa 0,0 l/m 2,7 km/h W-NW -17,2 C -13,3 C 8,4 km/h
02.02.2012 06:00 -13,5 C 72 % 1030,1 hPa 0,0 l/m 3,1 km/h NW -17,5 C -13,5 C 10,9 km/h
02.02.2012 07:00 -13,6 C 72 % 1030,1 hPa 0,0 l/m 4,0 km/h NW -17,6 C -13,6 C 11,7 km/h
02.02.2012 08:00 -13,1 C 69 % 1030,7 hPa 0,0 l/m 5,5 km/h W -17,6 C -13,1 C 12,5 km/h
02.02.2012 09:00 -12,5 C 67 % 1031,1 hPa 0,0 l/m 6,8 km/h N-NW -17,4 C -13,2 C 16,1 km/h
02.02.2012 10:00 -11,4 C 63 % 1031,3 hPa 0,0 l/m 7,1 km/h W-NW -17,1 C -12,4 C 16,9 km/h
02.02.2012 11:00 -9,9 C 56 % 1031,1 hPa 0,0 l/m 5,5 km/h N-NO -16,9 C -9,9 C 14,9 km/h
02.02.2012 12:00 -8,9 C 50 % 1030,6 hPa 0,0 l/m 6,5 km/h N-NO -17,3 C -9,0 C 15,7 km/h
02.02.2012 13:00 -8,0 C 47 % 1030,3 hPa 0,0 l/m 4,6 km/h N-NO -17,2 C -8,0 C 12,1 km/h
02.02.2012 14:00 -7,6 C 46 % 1030,1 hPa 0,0 l/m 4,3 km/h N-NO -17,2 C -7,6 C 11,3 km/h
02.02.2012 15:00 -7,2 C 45 % 1030,1 hPa 0,0 l/m 3,2 km/h N -17,1 C -7,2 C 11,7 km/h
02.02.2012 16:00 -7,7 C 47 % 1030,2 hPa 0,0 l/m 4,4 km/h NW -17,1 C -7,7 C 14,5 km/h
02.02.2012 17:00 -8,5 C 50 % 1030,8 hPa 0,0 l/m 2,7 km/h N-NO -17,0 C -8,5 C 8,9 km/h
02.02.2012 18:00 -9,4 C 52 % 1031,4 hPa 0,0 l/m 4,9 km/h N-NO -17,4 C -9,4 C 14,1 km/h
02.02.2012 19:00 -10,1 C 55 % 1031,8 hPa 0,0 l/m 3,4 km/h N-NO -17,4 C -10,1 C 10,9 km/h
02.02.2012 20:00 -10,8 C 58 % 1031,9 hPa 0,0 l/m 3,1 km/h N-NO -17,4 C -10,8 C 9,3 km/h
02.02.2012 21:00 -11,4 C 60 % 1032,6 hPa 0,0 l/m 2,9 km/h NW -17,5 C -11,4 C 9,3 km/h
02.02.2012 22:00 -12,0 C 62 % 1032,9 hPa 0,0 l/m 3,3 km/h N-NW -17,8 C -12,0 C 10,5 km/h
02.02.2012 23:00 -12,4 C 64 % 1032,9 hPa 0,0 l/m 3,7 km/h N-NO -17,7 C -12,4 C 11,3 km/h
03.02.2012 00:00 -12,9 C 67 % 1032,9 hPa 0,0 l/m 4,8 km/h NW -17,8 C -12,9 C 13,7 km/h
03.02.2012 01:00 -13,5 C 71 % 1033,0 hPa 0,0 l/m 5,3 km/h W-NW -17,7 C -13,5 C 12,9 km/h
03.02.2012 02:00 -14,0 C 70 % 1033,1 hPa 0,0 l/m 4,4 km/h W-NW -18,2 C -14,0 C 11,3 km/h
03.02.2012 03:00 -14,4 C 72 % 1033,0 hPa 0,0 l/m 4,8 km/h NW -18,4 C -14,4 C 11,7 km/h
03.02.2012 04:00 -14,8 C 73 % 1032,9 hPa 0,0 l/m 4,7 km/h W-NW -18,5 C -14,8 C 10,5 km/h
03.02.2012 05:00 -14,8 C 74 % 1032,9 hPa 0,0 l/m 6,1 km/h W-NW -18,5 C -14,9 C 16,5 km/h
03.02.2012 06:00 -15,0 C 74 % 1032,9 hPa 0,0 l/m 5,0 km/h W-NW -18,6 C -15,0 C 13,7 km/h
03.02.2012 07:00 -15,2 C 74 % 1033,3 hPa 0,0 l/m 4,7 km/h W-NW -18,8 C -15,2 C 12,5 km/h
03.02.2012 08:00 -14,9 C 73 % 1033,4 hPa 0,0 l/m 6,7 km/h W-NW -18,5 C -16,1 C 15,7 km/h
03.02.2012 09:00 -14,0 C 70 % 1033,6 hPa 0,0 l/m 6,1 km/h W -18,2 C -14,0 C 16,5 km/h
03.02.2012 10:00 -13,0 C 67 % 1033,7 hPa 0,0 l/m 7,2 km/h NW -17,8 C -14,1 C 17,3 km/h
03.02.2012 11:00 -11,5 C 61 % 1033,2 hPa 0,0 l/m 6,7 km/h NW -17,5 C -12,0 C 16,5 km/h
03.02.2012 12:00 -10,5 C 59 % 1032,8 hPa 0,0 l/m 7,4 km/h W -17,1 C -11,9 C 15,7 km/h
03.02.2012 13:00 -9,9 C 56 % 1032,5 hPa 0,0 l/m 7,9 km/h NW -17,1 C -11,9 C 18,9 km/h
03.02.2012 14:00 -9,5 C 55 % 1032,2 hPa 0,0 l/m 8,1 km/h W-NW -16,8 C -11,7 C 17,7 km/h
03.02.2012 15:00 -8,8 C 51 % 1032,0 hPa 0,0 l/m 7,9 km/h N-NW -17,0 C -10,7 C 16,9 km/h
03.02.2012 16:00 -8,8 C 48 % 1032,4 hPa 0,0 l/m 5,6 km/h NW -17,7 C -8,8 C 15,7 km/h
03.02.2012 17:00 -9,2 C 47 % 1032,7 hPa 0,0 l/m 5,3 km/h N-NO -18,4 C -9,2 C 13,7 km/h
03.02.2012 18:00 -9,6 C 46 % 1033,3 hPa 0,0 l/m 6,6 km/h N-NW -19,0 C -10,1 C 18,1 km/h
03.02.2012 19:00 -9,7 C 45 % 1033,5 hPa 0,0 l/m 8,2 km/h NW -19,3 C -12,0 C 19,3 km/h
03.02.2012 20:00 -9,8 C 44 % 1033,6 hPa 0,0 l/m 9,0 km/h N-NW -19,6 C -13,1 C 22,9 km/h
03.02.2012 21:00 -10,3 C 44 % 1034,1 hPa 0,0 l/m 9,2 km/h NW -20,1 C -13,8 C 20,5 km/h
03.02.2012 22:00 -10,9 C 44 % 1034,2 hPa 0,0 l/m 10,3 km/h W-NW -20,7 C -15,8 C 23,7 km/h
03.02.2012 23:00 -11,0 C 45 % 1034,5 hPa 0,0 l/m 10,9 km/h W-NW -20,7 C -16,5 C 24,5 km/h
04.02.2012 00:00 -10,7 C 45 % 1034,5 hPa 0,0 l/m 10,4 km/h W-NW -20,3 C -15,7 C 25,4 km/h
04.02.2012 01:00 -10,7 C 46 % 1034,0 hPa 0,0 l/m 11,8 km/h W -20,1 C -17,0 C 26,2 km/h
04.02.2012 02:00 -10,7 C 47 % 1034,2 hPa 0,0 l/m 11,7 km/h W-NW -19,7 C -17,1 C 27,4 km/h
04.02.2012 03:00 -10,9 C 48 % 1033,9 hPa 0,0 l/m 10,7 km/h W-NW -19,7 C -16,2 C 23,7 km/h
04.02.2012 04:00 -10,9 C 48 % 1033,8 hPa 0,0 l/m 11,6 km/h NW -19,8 C -17,2 C 26,1 km/h
04.02.2012 05:00 -11,1 C 48 % 1033,6 hPa 0,0 l/m 11,2 km/h W-NW -20,0 C -17,0 C 25,7 km/h
04.02.2012 06:00 -11,4 C 48 % 1034,0 hPa 0,0 l/m 9,4 km/h NW -20,3 C -15,4 C 21,7 km/h
04.02.2012 07:00 -11,5 C 47 % 1034,1 hPa 0,0 l/m 11,3 km/h NW -20,5 C -17,5 C 25,3 km/h
04.02.2012 08:00 -11,3 C 50 % 1034,2 hPa 0,0 l/m 12,9 km/h W-NW -19,7 C -18,8 C 28,1 km/h
04.02.2012 09:00 -10,9 C 50 % 1034,5 hPa 0,0 l/m 11,5 km/h N-NW -19,2 C -17,1 C 24,5 km/h
04.02.2012 10:00 -10,5 C 52 % 1034,1 hPa 0,0 l/m 13,7 km/h NW -18,5 C -18,6 C 29,0 km/h
04.02.2012 11:00 -9,8 C 47 % 1034,0 hPa 0,0 l/m 14,1 km/h W-NW -19,1 C -18,2 C 34,6 km/h
04.02.2012 12:00 -9,5 C 45 % 1033,6 hPa 0,0 l/m 14,9 km/h NW -19,2 C -18,4 C 29,0 km/h
04.02.2012 13:00 -8,8 C 44 % 1033,0 hPa 0,0 l/m 15,6 km/h N-NW -18,8 C -18,1 C 33,4 km/h
04.02.2012 14:00 -8,6 C 43 % 1033,0 hPa 0,0 l/m 16,8 km/h N-NO -19,0 C -18,7 C 32,2 km/h
04.02.2012 15:00 -8,3 C 40 % 1033,1 hPa 0,0 l/m 15,0 km/h W-NW -19,5 C -17,1 C 31,4 km/h
04.02.2012 16:00 -8,2 C 41 % 1032,8 hPa 0,0 l/m 14,7 km/h NW -19,2 C -16,6 C 32,6 km/h
04.02.2012 17:00 -8,5 C 39 % 1032,8 hPa 0,0 l/m 14,6 km/h W-NW -19,8 C -16,9 C 31,8 km/h
04.02.2012 18:00 -8,7 C 40 % 1033,2 hPa 0,0 l/m 14,7 km/h NW -19,8 C -17,2 C 29,8 km/h
04.02.2012 19:00 -8,8 C 43 % 1033,3 hPa 0,0 l/m 14,0 km/h N-NW -19,0 C -16,8 C 29,8 km/h
04.02.2012 20:00 -9,0 C 43 % 1033,6 hPa 0,0 l/m 14,0 km/h N-NW -19,1 C -17,0 C 29,0 km/h
04.02.2012 21:00 -9,1 C 42 % 1033,6 hPa 0,0 l/m 14,6 km/h N-NW -19,7 C -17,7 C 28,2 km/h
04.02.2012 22:00 -9,3 C 42 % 1033,8 hPa 0,0 l/m 14,8 km/h NW -19,8 C -18,1 C 32,6 km/h
04.02.2012 23:00 -9,4 C 44 % 1033,9 hPa 0,0 l/m 14,3 km/h NW -19,3 C -17,7 C 30,2 km/h
05.02.2012 00:00 -9,6 C 47 % 1033,8 hPa 0,0 l/m 14,8 km/h NW -18,9 C -18,4 C 31,0 km/h
05.02.2012 01:00 -9,8 C 47 % 1033,7 hPa 0,0 l/m 14,0 km/h W-NW -19,0 C -18,1 C 29,4 km/h
05.02.2012 02:00 -9,8 C 50 % 1033,5 hPa 0,0 l/m 14,8 km/h NW -18,3 C -18,6 C 32,6 km/h
05.02.2012 03:00 -9,9 C 50 % 1033,3 hPa 0,0 l/m 15,5 km/h NW -18,3 C -19,3 C 33,8 km/h
05.02.2012 04:00 -10,0 C 53 % 1033,5 hPa 0,0 l/m 12,1 km/h NW -17,8 C -16,6 C 28,6 km/h
05.02.2012 05:00 -10,2 C 58 % 1033,6 hPa 0,0 l/m 10,8 km/h N-NW -16,9 C -15,5 C 25,8 km/h
05.02.2012 06:00 -10,2 C 60 % 1033,6 hPa 0,0 l/m 12,6 km/h N-NW -16,4 C -17,3 C 26,1 km/h
05.02.2012 07:00 -10,2 C 62 % 1033,8 hPa 0,0 l/m 10,9 km/h NW -16,2 C -15,7 C 24,1 km/h
05.02.2012 08:00 -10,1 C 62 % 1033,8 hPa 0,0 l/m 10,8 km/h NW -15,9 C -15,4 C 22,9 km/h
05.02.2012 09:00 -9,6 C 61 % 1033,6 hPa 0,0 l/m 10,5 km/h N-NW -15,8 C -14,7 C 24,5 km/h
05.02.2012 10:00 -8,8 C 56 % 1033,3 hPa 0,0 l/m 12,9 km/h NW -15,9 C -15,9 C 30,2 km/h
05.02.2012 11:00 -8,4 C 54 % 1033,1 hPa 0,0 l/m 12,2 km/h NW -16,2 C -14,8 C 26,5 km/h
05.02.2012 12:00 -7,8 C 48 % 1032,6 hPa 0,0 l/m 13,1 km/h NW -16,8 C -14,9 C 26,2 km/h
05.02.2012 13:00 -7,4 C 46 % 1032,3 hPa 0,0 l/m 11,5 km/h NW -17,0 C -13,1 C 26,5 km/h
05.02.2012 14:00 -7,2 C 43 % 1032,2 hPa 0,0 l/m 10,6 km/h N-NW -17,8 C -12,0 C 22,9 km/h
05.02.2012 15:00 -7,5 C 44 % 1032,4 hPa 0,0 l/m 10,1 km/h N -17,6 C -11,9 C 23,7 km/h
05.02.2012 16:00 -8,4 C 47 % 1032,8 hPa 0,0 l/m 8,6 km/h N -17,7 C -11,2 C 20,9 km/h
05.02.2012 17:00 -9,5 C 50 % 1033,2 hPa 0,0 l/m 5,9 km/h N -17,8 C -9,4 C 16,9 km/h
05.02.2012 18:00 -10,1 C 52 % 1033,4 hPa 0,0 l/m 5,6 km/h NW -17,9 C -10,1 C 15,7 km/h
05.02.2012 19:00 -10,8 C 54 % 1033,6 hPa 0,0 l/m 4,4 km/h N-NW -18,2 C -10,8 C 12,1 km/h
05.02.2012 20:00 -11,4 C 56 % 1033,8 hPa 0,0 l/m 3,9 km/h NW -18,4 C -11,4 C 12,9 km/h
05.02.2012 21:00 -11,8 C 57 % 1033,9 hPa 0,0 l/m 5,4 km/h NW -18,5 C -11,8 C 15,3 km/h
05.02.2012 22:00 -12,2 C 59 % 1034,0 hPa 0,0 l/m 4,8 km/h W-NW -18,6 C -12,2 C 12,5 km/h
05.02.2012 23:00 -12,5 C 60 % 1033,9 hPa 0,0 l/m 5,3 km/h W-NW -18,6 C -12,5 C 12,5 km/h
Min-Datum _ 03.02.12 04.02.12 01.02.12 - 30.01.12 - 03.02.12 05.02.12 30.01.12
_ Min-Zeit 07:45 15:30 14:45 - 01:45 - 23:30 00:30 03:45
Minimum _ -15,3 C 38 % 1027,2 hPa - 0,0 km/h - -20,9 C -20,4 C 0,0 km/h
Max-Datum _ 30.01.12 30.01.12 03.02.12 30.01.12 04.02.12 - 30.01.12 30.01.12 04.02.12
_ Max-Zeit 14:15 09:45 23:45 00:00 14:30 - 12:15 14:45 11:45
Maximum _ 1,1 C 86 % 1034,7 hPa 0,0 l/m 18,6 km/h
N-NO
- -5,6 C 1,0 C 43,5 km/h
NW
Durchschnitt _ -8,7 C 62 % 1031,5 hPa #0,0 l/m 5,7 km/h NW -14,9 C -10,7 C 14,5 km/h